sensor_id;sensor_type;location;lat;lon;timestamp;pressure;altitude;pressure_sealevel;temperature;humidity
22872;BME280;11603;44.910;8.630;2023-03-14T00:01:53;99666.47;;;13.55;100.00
22872;BME280;11603;44.910;8.630;2023-03-14T00:04:21;99666.03;;;13.60;100.00
22872;BME280;11603;44.910;8.630;2023-03-14T00:06:46;99669.00;;;13.66;100.00
22872;BME280;11603;44.910;8.630;2023-03-14T00:09:13;99664.50;;;13.67;100.00
22872;BME280;11603;44.910;8.630;2023-03-14T00:11:38;99661.25;;;13.73;100.00
22872;BME280;11603;44.910;8.630;2023-03-14T00:14:04;99644.44;;;13.80;100.00
22872;BME280;11603;44.910;8.630;2023-03-14T00:16:30;99624.66;;;13.81;100.00
22872;BME280;11603;44.910;8.630;2023-03-14T00:18:55;99630.72;;;13.83;100.00
22872;BME280;11603;44.910;8.630;2023-03-14T00:21:21;99625.47;;;13.72;100.00
22872;BME280;11603;44.910;8.630;2023-03-14T00:23:46;99621.78;;;13.73;100.00
22872;BME280;11603;44.910;8.630;2023-03-14T00:26:14;99614.44;;;13.75;100.00
22872;BME280;11603;44.910;8.630;2023-03-14T00:28:42;99585.44;;;13.69;100.00
22872;BME280;11603;44.910;8.630;2023-03-14T00:31:09;99598.31;;;13.66;100.00
22872;BME280;11603;44.910;8.630;2023-03-14T00:33:35;99595.47;;;13.57;100.00
22872;BME280;11603;44.910;8.630;2023-03-14T00:36:07;99577.78;;;13.55;100.00
22872;BME280;11603;44.910;8.630;2023-03-14T00:38:34;99568.72;;;13.46;100.00
22872;BME280;11603;44.910;8.630;2023-03-14T00:41:07;99562.00;;;13.12;100.00
22872;BME280;11603;44.910;8.630;2023-03-14T00:43:33;99562.72;;;12.93;100.00
22872;BME280;11603;44.910;8.630;2023-03-14T00:45:59;99560.31;;;12.90;100.00
22872;BME280;11603;44.910;8.630;2023-03-14T00:48:26;99555.94;;;12.89;100.00
22872;BME280;11603;44.910;8.630;2023-03-14T00:50:52;99538.22;;;12.77;100.00
22872;BME280;11603;44.910;8.630;2023-03-14T00:53:18;99551.19;;;12.72;100.00
22872;BME280;11603;44.910;8.630;2023-03-14T00:55:44;99534.53;;;12.68;100.00
22872;BME280;11603;44.910;8.630;2023-03-14T00:58:11;99530.94;;;12.58;100.00
22872;BME280;11603;44.910;8.630;2023-03-14T01:00:37;99540.91;;;12.47;100.00
22872;BME280;11603;44.910;8.630;2023-03-14T01:03:03;99533.13;;;12.44;100.00
22872;BME280;11603;44.910;8.630;2023-03-14T01:05:29;99530.53;;;12.32;100.00
22872;BME280;11603;44.910;8.630;2023-03-14T01:07:54;99530.41;;;12.34;100.00
22872;BME280;11603;44.910;8.630;2023-03-14T01:10:20;99518.41;;;12.38;100.00
22872;BME280;11603;44.910;8.630;2023-03-14T01:12:45;99485.38;;;12.38;100.00
22872;BME280;11603;44.910;8.630;2023-03-14T01:15:11;99493.84;;;12.33;100.00
22872;BME280;11603;44.910;8.630;2023-03-14T01:17:38;99504.03;;;12.39;100.00
22872;BME280;11603;44.910;8.630;2023-03-14T01:20:06;99505.19;;;12.46;100.00
22872;BME280;11603;44.910;8.630;2023-03-14T01:22:35;99497.09;;;12.37;100.00
22872;BME280;11603;44.910;8.630;2023-03-14T01:25:01;99479.75;;;12.41;100.00
22872;BME280;11603;44.910;8.630;2023-03-14T01:27:27;99468.06;;;12.51;100.00
22872;BME280;11603;44.910;8.630;2023-03-14T01:29:53;99472.25;;;12.65;100.00
22872;BME280;11603;44.910;8.630;2023-03-14T01:32:18;99467.56;;;12.67;100.00
22872;BME280;11603;44.910;8.630;2023-03-14T01:34:44;99436.84;;;12.71;100.00
22872;BME280;11603;44.910;8.630;2023-03-14T01:37:10;99427.22;;;12.78;100.00
22872;BME280;11603;44.910;8.630;2023-03-14T01:39:38;99417.78;;;12.84;100.00
22872;BME280;11603;44.910;8.630;2023-03-14T01:42:03;99410.00;;;12.81;100.00
22872;BME280;11603;44.910;8.630;2023-03-14T01:44:47;99381.91;;;12.85;100.00
22872;BME280;11603;44.910;8.630;2023-03-14T01:47:13;99338.00;;;12.76;100.00
22872;BME280;11603;44.910;8.630;2023-03-14T01:49:39;99327.50;;;12.73;100.00
22872;BME280;11603;44.910;8.630;2023-03-14T01:52:18;99302.13;;;12.87;100.00
22872;BME280;11603;44.910;8.630;2023-03-14T01:54:48;99263.97;;;13.22;100.00
22872;BME280;11603;44.910;8.630;2023-03-14T01:57:40;99288.06;;;13.60;100.00
22872;BME280;11603;44.910;8.630;2023-03-14T02:00:12;99288.47;;;13.92;100.00
22872;BME280;11603;44.910;8.630;2023-03-14T02:02:47;99301.34;;;14.26;100.00
22872;BME280;11603;44.910;8.630;2023-03-14T02:05:19;99341.38;;;14.38;100.00
22872;BME280;11603;44.910;8.630;2023-03-14T02:07:55;99360.81;;;14.50;100.00
22872;BME280;11603;44.910;8.630;2023-03-14T02:10:28;99365.59;;;14.56;100.00
22872;BME280;11603;44.910;8.630;2023-03-14T02:13:00;99341.78;;;14.44;100.00
22872;BME280;11603;44.910;8.630;2023-03-14T02:15:35;99338.28;;;13.96;100.00
22872;BME280;11603;44.910;8.630;2023-03-14T02:18:25;99352.13;;;13.55;100.00
22872;BME280;11603;44.910;8.630;2023-03-14T02:23:58;99363.56;;;12.99;100.00
22872;BME280;11603;44.910;8.630;2023-03-14T02:27:02;99375.94;;;12.62;100.00
22872;BME280;11603;44.910;8.630;2023-03-14T02:29:29;99387.63;;;12.51;100.00
22872;BME280;11603;44.910;8.630;2023-03-14T02:31:56;99394.00;;;12.50;100.00
22872;BME280;11603;44.910;8.630;2023-03-14T02:34:22;99382.09;;;12.43;100.00
22872;BME280;11603;44.910;8.630;2023-03-14T02:36:49;99387.00;;;12.28;100.00
22872;BME280;11603;44.910;8.630;2023-03-14T02:39:21;99371.31;;;12.24;100.00
22872;BME280;11603;44.910;8.630;2023-03-14T02:41:50;99368.03;;;12.20;100.00
22872;BME280;11603;44.910;8.630;2023-03-14T02:44:15;99359.97;;;12.11;100.00
22872;BME280;11603;44.910;8.630;2023-03-14T02:46:42;99369.28;;;12.07;100.00
22872;BME280;11603;44.910;8.630;2023-03-14T02:49:10;99374.06;;;12.03;100.00
22872;BME280;11603;44.910;8.630;2023-03-14T02:51:37;99381.38;;;12.01;100.00
22872;BME280;11603;44.910;8.630;2023-03-14T02:54:06;99392.94;;;12.02;100.00
22872;BME280;11603;44.910;8.630;2023-03-14T02:56:32;99397.63;;;12.09;100.00
22872;BME280;11603;44.910;8.630;2023-03-14T02:59:02;99385.91;;;12.10;100.00
22872;BME280;11603;44.910;8.630;2023-03-14T03:01:36;99379.53;;;12.02;100.00
22872;BME280;11603;44.910;8.630;2023-03-14T03:04:01;99389.72;;;12.08;100.00
22872;BME280;11603;44.910;8.630;2023-03-14T03:06:27;99381.69;;;12.08;100.00
22872;BME280;11603;44.910;8.630;2023-03-14T03:08:53;99380.41;;;12.02;100.00
22872;BME280;11603;44.910;8.630;2023-03-14T03:11:18;99386.78;;;12.11;100.00
22872;BME280;11603;44.910;8.630;2023-03-14T03:13:44;99362.34;;;12.04;100.00
22872;BME280;11603;44.910;8.630;2023-03-14T03:16:09;99329.72;;;11.99;100.00
22872;BME280;11603;44.910;8.630;2023-03-14T03:18:35;99339.03;;;11.95;100.00
22872;BME280;11603;44.910;8.630;2023-03-14T03:21:02;99339.31;;;11.92;100.00
22872;BME280;11603;44.910;8.630;2023-03-14T03:23:29;99314.22;;;11.93;100.00
22872;BME280;11603;44.910;8.630;2023-03-14T03:25:56;99325.72;;;11.84;100.00
22872;BME280;11603;44.910;8.630;2023-03-14T03:28:22;99352.78;;;11.81;100.00
22872;BME280;11603;44.910;8.630;2023-03-14T03:30:48;99332.25;;;11.91;100.00
22872;BME280;11603;44.910;8.630;2023-03-14T03:33:14;99363.16;;;11.95;100.00
22872;BME280;11603;44.910;8.630;2023-03-14T03:35:49;99404.84;;;11.88;100.00
22872;BME280;11603;44.910;8.630;2023-03-14T03:38:20;99470.00;;;11.88;100.00
22872;BME280;11603;44.910;8.630;2023-03-14T03:40:48;99542.44;;;11.66;100.00
22872;BME280;11603;44.910;8.630;2023-03-14T03:43:14;99578.88;;;11.46;100.00
22872;BME280;11603;44.910;8.630;2023-03-14T03:45:43;99625.63;;;11.31;100.00
22872;BME280;11603;44.910;8.630;2023-03-14T03:48:10;99593.19;;;11.25;100.00
22872;BME280;11603;44.910;8.630;2023-03-14T03:50:35;99581.00;;;11.21;100.00
22872;BME280;11603;44.910;8.630;2023-03-14T03:53:02;99558.13;;;11.17;100.00
22872;BME280;11603;44.910;8.630;2023-03-14T03:55:27;99522.50;;;11.16;100.00
22872;BME280;11603;44.910;8.630;2023-03-14T03:57:53;99504.38;;;11.20;100.00
22872;BME280;11603;44.910;8.630;2023-03-14T04:00:19;99485.84;;;11.28;100.00
22872;BME280;11603;44.910;8.630;2023-03-14T04:02:46;99498.13;;;11.30;100.00
22872;BME280;11603;44.910;8.630;2023-03-14T04:05:14;99490.34;;;11.27;100.00
22872;BME280;11603;44.910;8.630;2023-03-14T04:07:51;99498.84;;;11.32;100.00
22872;BME280;11603;44.910;8.630;2023-03-14T04:10:22;99506.88;;;11.32;100.00
22872;BME280;11603;44.910;8.630;2023-03-14T04:13:04;99525.13;;;11.38;100.00
22872;BME280;11603;44.910;8.630;2023-03-14T04:15:32;99533.06;;;11.29;100.00
22872;BME280;11603;44.910;8.630;2023-03-14T04:18:01;99526.97;;;11.27;100.00
22872;BME280;11603;44.910;8.630;2023-03-14T04:20:27;99516.13;;;11.28;100.00
22872;BME280;11603;44.910;8.630;2023-03-14T04:22:53;99496.16;;;11.32;100.00
22872;BME280;11603;44.910;8.630;2023-03-14T04:25:19;99491.16;;;11.39;100.00
22872;BME280;11603;44.910;8.630;2023-03-14T04:27:50;99477.19;;;11.35;100.00
22872;BME280;11603;44.910;8.630;2023-03-14T04:30:20;99461.81;;;11.37;100.00
22872;BME280;11603;44.910;8.630;2023-03-14T04:32:53;99434.88;;;11.50;100.00
22872;BME280;11603;44.910;8.630;2023-03-14T04:35:21;99424.63;;;11.55;100.00
22872;BME280;11603;44.910;8.630;2023-03-14T04:37:47;99431.16;;;11.62;100.00
22872;BME280;11603;44.910;8.630;2023-03-14T04:40:15;99420.53;;;11.72;100.00
22872;BME280;11603;44.910;8.630;2023-03-14T04:42:41;99444.84;;;11.80;100.00
22872;BME280;11603;44.910;8.630;2023-03-14T04:45:09;99439.16;;;11.73;100.00
22872;BME280;11603;44.910;8.630;2023-03-14T04:47:36;99408.84;;;11.73;100.00
22872;BME280;11603;44.910;8.630;2023-03-14T04:50:03;99415.28;;;11.70;100.00
22872;BME280;11603;44.910;8.630;2023-03-14T04:52:28;99421.63;;;11.69;100.00
22872;BME280;11603;44.910;8.630;2023-03-14T04:54:54;99403.25;;;11.76;100.00
22872;BME280;11603;44.910;8.630;2023-03-14T04:57:22;99406.25;;;11.82;100.00
22872;BME280;11603;44.910;8.630;2023-03-14T04:59:49;99383.41;;;11.88;100.00
22872;BME280;11603;44.910;8.630;2023-03-14T05:02:34;99371.53;;;11.81;100.00
22872;BME280;11603;44.910;8.630;2023-03-14T05:05:20;99372.63;;;11.78;100.00
22872;BME280;11603;44.910;8.630;2023-03-14T05:08:03;99374.47;;;11.78;100.00
22872;BME280;11603;44.910;8.630;2023-03-14T05:10:57;99398.56;;;11.78;100.00
22872;BME280;11603;44.910;8.630;2023-03-14T05:13:49;99399.72;;;11.75;100.00
22872;BME280;11603;44.910;8.630;2023-03-14T05:16:26;99391.56;;;11.77;100.00
22872;BME280;11603;44.910;8.630;2023-03-14T05:19:13;99399.19;;;11.81;100.00
22872;BME280;11603;44.910;8.630;2023-03-14T05:21:55;99390.28;;;11.81;100.00
22872;BME280;11603;44.910;8.630;2023-03-14T05:24:50;99377.03;;;11.79;100.00
22872;BME280;11603;44.910;8.630;2023-03-14T05:27:35;99374.38;;;11.89;100.00
22872;BME280;11603;44.910;8.630;2023-03-14T05:30:19;99373.28;;;11.92;100.00
22872;BME280;11603;44.910;8.630;2023-03-14T05:33:02;99363.56;;;11.91;100.00
22872;BME280;11603;44.910;8.630;2023-03-14T05:35:49;99345.38;;;11.94;100.00
22872;BME280;11603;44.910;8.630;2023-03-14T05:38:33;99352.09;;;11.88;100.00
22872;BME280;11603;44.910;8.630;2023-03-14T05:41:20;99372.97;;;11.85;100.00
22872;BME280;11603;44.910;8.630;2023-03-14T05:44:04;99378.28;;;11.75;100.00
22872;BME280;11603;44.910;8.630;2023-03-14T05:46:49;99378.88;;;11.68;100.00
22872;BME280;11603;44.910;8.630;2023-03-14T05:49:28;99381.94;;;11.74;100.00
22872;BME280;11603;44.910;8.630;2023-03-14T05:52:17;99390.47;;;11.89;100.00
22872;BME280;11603;44.910;8.630;2023-03-14T05:54:54;99388.84;;;11.98;100.00
22872;BME280;11603;44.910;8.630;2023-03-14T05:57:36;99380.53;;;12.01;100.00
22872;BME280;11603;44.910;8.630;2023-03-14T06:00:28;99378.59;;;12.12;100.00
22872;BME280;11603;44.910;8.630;2023-03-14T06:03:06;99383.44;;;12.18;100.00
22872;BME280;11603;44.910;8.630;2023-03-14T06:05:35;99381.44;;;12.20;100.00
22872;BME280;11603;44.910;8.630;2023-03-14T06:08:01;99357.47;;;12.19;100.00
22872;BME280;11603;44.910;8.630;2023-03-14T06:10:29;99364.34;;;12.12;100.00
22872;BME280;11603;44.910;8.630;2023-03-14T06:12:55;99360.69;;;12.13;100.00
22872;BME280;11603;44.910;8.630;2023-03-14T06:15:20;99357.47;;;12.19;100.00
22872;BME280;11603;44.910;8.630;2023-03-14T06:17:48;99350.00;;;12.22;100.00
22872;BME280;11603;44.910;8.630;2023-03-14T06:20:15;99358.19;;;12.30;100.00
22872;BME280;11603;44.910;8.630;2023-03-14T06:22:41;99357.81;;;12.35;100.00
22872;BME280;11603;44.910;8.630;2023-03-14T06:25:09;99355.13;;;12.35;100.00
22872;BME280;11603;44.910;8.630;2023-03-14T06:27:34;99357.53;;;12.38;100.00
22872;BME280;11603;44.910;8.630;2023-03-14T06:30:00;99368.97;;;12.40;100.00
22872;BME280;11603;44.910;8.630;2023-03-14T06:32:36;99365.03;;;12.44;100.00
22872;BME280;11603;44.910;8.630;2023-03-14T06:35:06;99357.28;;;12.51;100.00
22872;BME280;11603;44.910;8.630;2023-03-14T06:37:35;99357.72;;;12.56;100.00
22872;BME280;11603;44.910;8.630;2023-03-14T06:40:01;99349.41;;;12.68;100.00
22872;BME280;11603;44.910;8.630;2023-03-14T06:42:46;99335.56;;;12.83;100.00
22872;BME280;11603;44.910;8.630;2023-03-14T06:45:14;99346.59;;;12.89;100.00
22872;BME280;11603;44.910;8.630;2023-03-14T06:47:41;99339.09;;;12.73;100.00
22872;BME280;11603;44.910;8.630;2023-03-14T06:50:08;99335.56;;;12.73;100.00
22872;BME280;11603;44.910;8.630;2023-03-14T06:52:36;99332.19;;;12.71;100.00
22872;BME280;11603;44.910;8.630;2023-03-14T06:55:02;99333.16;;;12.60;100.00
22872;BME280;11603;44.910;8.630;2023-03-14T06:57:29;99336.50;;;12.43;100.00
22872;BME280;11603;44.910;8.630;2023-03-14T06:59:54;99342.84;;;12.32;100.00
22872;BME280;11603;44.910;8.630;2023-03-14T07:02:21;99349.00;;;12.14;100.00
22872;BME280;11603;44.910;8.630;2023-03-14T07:04:47;99346.41;;;12.03;100.00
22872;BME280;11603;44.910;8.630;2023-03-14T07:07:13;99349.09;;;12.03;100.00
22872;BME280;11603;44.910;8.630;2023-03-14T07:09:38;99342.56;;;11.96;100.00
22872;BME280;11603;44.910;8.630;2023-03-14T07:12:05;99351.16;;;11.99;100.00
22872;BME280;11603;44.910;8.630;2023-03-14T07:14:30;99352.03;;;12.00;100.00
22872;BME280;11603;44.910;8.630;2023-03-14T07:16:56;99348.81;;;12.06;100.00
22872;BME280;11603;44.910;8.630;2023-03-14T07:19:23;99340.78;;;12.15;100.00
22872;BME280;11603;44.910;8.630;2023-03-14T07:21:48;99345.50;;;12.23;100.00
22872;BME280;11603;44.910;8.630;2023-03-14T07:24:19;99336.38;;;12.35;100.00
22872;BME280;11603;44.910;8.630;2023-03-14T07:26:45;99346.09;;;12.46;100.00
22872;BME280;11603;44.910;8.630;2023-03-14T07:29:10;99350.47;;;12.47;100.00
22872;BME280;11603;44.910;8.630;2023-03-14T07:31:39;99339.75;;;12.37;100.00
22872;BME280;11603;44.910;8.630;2023-03-14T07:34:05;99338.03;;;12.36;100.00
22872;BME280;11603;44.910;8.630;2023-03-14T07:36:35;99340.03;;;12.44;100.00
22872;BME280;11603;44.910;8.630;2023-03-14T07:39:01;99340.91;;;12.44;100.00
22872;BME280;11603;44.910;8.630;2023-03-14T07:41:44;99344.00;;;12.49;100.00
22872;BME280;11603;44.910;8.630;2023-03-14T07:44:29;99351.78;;;12.62;100.00
22872;BME280;11603;44.910;8.630;2023-03-14T07:46:57;99358.16;;;12.61;100.00
22872;BME280;11603;44.910;8.630;2023-03-14T07:49:22;99369.72;;;12.61;100.00
22872;BME280;11603;44.910;8.630;2023-03-14T07:51:48;99369.16;;;12.58;100.00
22872;BME280;11603;44.910;8.630;2023-03-14T07:54:14;99362.81;;;12.68;100.00
22872;BME280;11603;44.910;8.630;2023-03-14T07:56:40;99355.75;;;12.67;100.00
22872;BME280;11603;44.910;8.630;2023-03-14T07:59:05;99365.06;;;12.63;100.00
22872;BME280;11603;44.910;8.630;2023-03-14T08:01:31;99371.72;;;12.69;100.00
22872;BME280;11603;44.910;8.630;2023-03-14T08:03:56;99376.97;;;12.80;100.00
22872;BME280;11603;44.910;8.630;2023-03-14T08:06:22;99375.88;;;13.02;100.00
22872;BME280;11603;44.910;8.630;2023-03-14T08:08:47;99373.75;;;13.15;100.00
22872;BME280;11603;44.910;8.630;2023-03-14T08:11:13;99370.63;;;13.10;100.00
22872;BME280;11603;44.910;8.630;2023-03-14T08:13:38;99369.94;;;13.08;100.00
22872;BME280;11603;44.910;8.630;2023-03-14T08:16:05;99381.13;;;13.13;100.00
22872;BME280;11603;44.910;8.630;2023-03-14T08:18:31;99364.41;;;13.09;100.00
22872;BME280;11603;44.910;8.630;2023-03-14T08:20:56;99369.09;;;13.36;100.00
22872;BME280;11603;44.910;8.630;2023-03-14T08:23:22;99359.91;;;13.48;100.00
22872;BME280;11603;44.910;8.630;2023-03-14T08:25:51;99354.63;;;13.66;100.00
22872;BME280;11603;44.910;8.630;2023-03-14T08:28:17;99342.34;;;13.64;100.00
22872;BME280;11603;44.910;8.630;2023-03-14T08:30:43;99342.63;;;13.61;100.00
22872;BME280;11603;44.910;8.630;2023-03-14T08:33:09;99338.19;;;13.79;100.00
22872;BME280;11603;44.910;8.630;2023-03-14T08:35:34;99352.72;;;13.95;100.00
22872;BME280;11603;44.910;8.630;2023-03-14T08:38:00;99341.13;;;14.22;100.00
22872;BME280;11603;44.910;8.630;2023-03-14T08:40:26;99334.22;;;14.47;100.00
22872;BME280;11603;44.910;8.630;2023-03-14T08:42:53;99339.09;;;14.61;100.00
22872;BME280;11603;44.910;8.630;2023-03-14T08:45:20;99338.69;;;14.56;100.00
22872;BME280;11603;44.910;8.630;2023-03-14T08:47:45;99342.22;;;14.84;100.00
22872;BME280;11603;44.910;8.630;2023-03-14T08:50:15;99333.50;;;15.08;100.00
22872;BME280;11603;44.910;8.630;2023-03-14T08:52:40;99332.75;;;15.15;100.00
22872;BME280;11603;44.910;8.630;2023-03-14T08:55:08;99327.34;;;15.15;100.00
22872;BME280;11603;44.910;8.630;2023-03-14T08:57:34;99328.47;;;15.48;100.00
22872;BME280;11603;44.910;8.630;2023-03-14T08:59:59;99336.53;;;15.05;100.00
22872;BME280;11603;44.910;8.630;2023-03-14T09:02:25;99346.34;;;15.14;100.00
22872;BME280;11603;44.910;8.630;2023-03-14T09:04:51;99344.28;;;15.08;100.00
22872;BME280;11603;44.910;8.630;2023-03-14T09:07:17;99351.50;;;15.07;100.00
22872;BME280;11603;44.910;8.630;2023-03-14T09:09:43;99352.03;;;15.28;100.00
22872;BME280;11603;44.910;8.630;2023-03-14T09:12:10;99366.50;;;15.45;100.00
22872;BME280;11603;44.910;8.630;2023-03-14T09:14:36;99351.81;;;15.57;100.00
22872;BME280;11603;44.910;8.630;2023-03-14T09:17:02;99341.50;;;15.35;100.00
22872;BME280;11603;44.910;8.630;2023-03-14T09:19:30;99345.97;;;15.26;100.00
22872;BME280;11603;44.910;8.630;2023-03-14T09:21:55;99347.97;;;15.42;100.00
22872;BME280;11603;44.910;8.630;2023-03-14T09:24:21;99351.31;;;15.44;100.00
22872;BME280;11603;44.910;8.630;2023-03-14T09:26:46;99352.81;;;15.56;100.00
22872;BME280;11603;44.910;8.630;2023-03-14T09:29:12;99341.72;;;15.59;100.00
22872;BME280;11603;44.910;8.630;2023-03-14T09:31:38;99336.13;;;15.79;100.00
22872;BME280;11603;44.910;8.630;2023-03-14T09:34:03;99340.25;;;16.25;100.00
22872;BME280;11603;44.910;8.630;2023-03-14T09:36:30;99333.91;;;16.42;100.00
22872;BME280;11603;44.910;8.630;2023-03-14T09:38:57;99326.31;;;16.37;100.00
22872;BME280;11603;44.910;8.630;2023-03-14T09:41:27;99331.81;;;16.28;100.00
22872;BME280;11603;44.910;8.630;2023-03-14T09:44:05;99323.34;;;16.15;100.00
22872;BME280;11603;44.910;8.630;2023-03-14T09:46:35;99335.72;;;15.99;100.00
22872;BME280;11603;44.910;8.630;2023-03-14T09:49:01;99340.31;;;16.07;100.00
22872;BME280;11603;44.910;8.630;2023-03-14T09:51:27;99340.84;;;16.10;100.00
22872;BME280;11603;44.910;8.630;2023-03-14T09:53:53;99344.19;;;16.04;100.00
22872;BME280;11603;44.910;8.630;2023-03-14T09:56:21;99331.41;;;16.06;100.00
22872;BME280;11603;44.910;8.630;2023-03-14T09:58:53;99336.38;;;15.93;100.00
22872;BME280;11603;44.910;8.630;2023-03-14T10:01:24;99337.72;;;15.63;100.00
22872;BME280;11603;44.910;8.630;2023-03-14T10:03:54;99333.69;;;15.67;100.00
22872;BME280;11603;44.910;8.630;2023-03-14T10:06:21;99321.94;;;15.77;100.00
22872;BME280;11603;44.910;8.630;2023-03-14T10:11:29;99312.91;;;15.60;100.00
22872;BME280;11603;44.910;8.630;2023-03-14T10:14:13;99316.38;;;15.70;100.00
22872;BME280;11603;44.910;8.630;2023-03-14T10:17:18;99324.06;;;15.91;100.00
22872;BME280;11603;44.910;8.630;2023-03-14T10:20:03;99320.97;;;16.12;100.00
22872;BME280;11603;44.910;8.630;2023-03-14T10:23:22;99327.47;;;16.35;100.00
22872;BME280;11603;44.910;8.630;2023-03-14T10:30:04;99328.38;;;16.09;100.00
22872;BME280;11603;44.910;8.630;2023-03-14T10:32:51;99325.91;;;15.90;100.00
22872;BME280;11603;44.910;8.630;2023-03-14T10:37:59;99325.31;;;16.54;100.00
22872;BME280;11603;44.910;8.630;2023-03-14T10:40:34;99318.66;;;16.67;100.00
22872;BME280;11603;44.910;8.630;2023-03-14T10:43:05;99322.22;;;16.75;100.00
22872;BME280;11603;44.910;8.630;2023-03-14T10:45:35;99325.91;;;16.66;100.00
22872;BME280;11603;44.910;8.630;2023-03-14T10:48:48;99329.47;;;16.67;100.00
22872;BME280;11603;44.910;8.630;2023-03-14T10:53:41;99324.97;;;16.49;100.00
22872;BME280;11603;44.910;8.630;2023-03-14T10:56:13;99321.06;;;16.44;100.00
22872;BME280;11603;44.910;8.630;2023-03-14T10:58:43;99330.03;;;16.44;100.00
22872;BME280;11603;44.910;8.630;2023-03-14T11:07:03;99337.03;;;16.21;100.00
22872;BME280;11603;44.910;8.630;2023-03-14T11:21:33;99328.44;;;15.92;100.00
22872;BME280;11603;44.910;8.630;2023-03-14T11:24:10;99322.00;;;15.85;100.00
22872;BME280;11603;44.910;8.630;2023-03-14T11:29:41;99321.59;;;16.05;100.00
22872;BME280;11603;44.910;8.630;2023-03-14T11:32:14;99314.19;;;16.07;100.00
22872;BME280;11603;44.910;8.630;2023-03-14T11:34:52;99313.88;;;16.10;100.00
22872;BME280;11603;44.910;8.630;2023-03-14T11:37:31;99308.63;;;16.09;100.00
22872;BME280;11603;44.910;8.630;2023-03-14T11:40:10;99301.25;;;16.19;100.00
22872;BME280;11603;44.910;8.630;2023-03-14T11:42:41;99299.06;;;16.23;100.00
22872;BME280;11603;44.910;8.630;2023-03-14T11:45:17;99300.81;;;16.32;100.00
22872;BME280;11603;44.910;8.630;2023-03-14T11:47:49;99300.53;;;16.43;100.00
22872;BME280;11603;44.910;8.630;2023-03-14T11:50:24;99290.19;;;16.30;100.00
22872;BME280;11603;44.910;8.630;2023-03-14T11:52:57;99289.66;;;16.27;100.00
22872;BME280;11603;44.910;8.630;2023-03-14T11:55:37;99289.09;;;16.15;100.00
22872;BME280;11603;44.910;8.630;2023-03-14T12:00:52;99290.03;;;15.98;100.00
22872;BME280;11603;44.910;8.630;2023-03-14T12:08:42;99277.47;;;16.15;100.00
22872;BME280;11603;44.910;8.630;2023-03-14T12:11:13;99276.00;;;16.28;100.00
22872;BME280;11603;44.910;8.630;2023-03-14T12:13:41;99270.78;;;16.27;100.00
22872;BME280;11603;44.910;8.630;2023-03-14T12:16:30;99272.81;;;16.33;100.00
22872;BME280;11603;44.910;8.630;2023-03-14T12:18:56;99259.00;;;16.44;100.00
22872;BME280;11603;44.910;8.630;2023-03-14T12:21:23;99262.41;;;16.54;100.00
22872;BME280;11603;44.910;8.630;2023-03-14T12:24:02;99253.28;;;16.55;100.00
22872;BME280;11603;44.910;8.630;2023-03-14T12:27:06;99247.75;;;16.57;100.00
22872;BME280;11603;44.910;8.630;2023-03-14T12:29:57;99250.94;;;16.52;100.00
22872;BME280;11603;44.910;8.630;2023-03-14T12:32:24;99246.34;;;16.36;100.00
22872;BME280;11603;44.910;8.630;2023-03-14T12:34:50;99249.91;;;16.37;100.00
22872;BME280;11603;44.910;8.630;2023-03-14T12:37:37;99243.31;;;16.39;100.00
22872;BME280;11603;44.910;8.630;2023-03-14T12:40:19;99243.16;;;16.49;100.00
22872;BME280;11603;44.910;8.630;2023-03-14T12:45:35;99232.16;;;16.34;100.00
22872;BME280;11603;44.910;8.630;2023-03-14T12:48:23;99230.50;;;16.41;100.00
22872;BME280;11603;44.910;8.630;2023-03-14T12:51:02;99229.66;;;16.41;100.00
22872;BME280;11603;44.910;8.630;2023-03-14T12:56:45;99220.97;;;16.63;100.00
22872;BME280;11603;44.910;8.630;2023-03-14T13:02:14;99202.56;;;16.83;100.00
22872;BME280;11603;44.910;8.630;2023-03-14T13:10:46;99198.66;;;17.18;100.00
22872;BME280;11603;44.910;8.630;2023-03-14T13:13:24;99192.56;;;17.24;100.00
22872;BME280;11603;44.910;8.630;2023-03-14T13:15:59;99185.47;;;17.07;100.00
22872;BME280;11603;44.910;8.630;2023-03-14T13:18:39;99178.25;;;16.91;100.00
22872;BME280;11603;44.910;8.630;2023-03-14T13:21:25;99180.44;;;16.87;100.00
22872;BME280;11603;44.910;8.630;2023-03-14T13:24:20;99171.84;;;16.84;100.00
22872;BME280;11603;44.910;8.630;2023-03-14T13:26:47;99166.94;;;16.71;100.00
22872;BME280;11603;44.910;8.630;2023-03-14T13:29:27;99168.47;;;16.66;100.00
22872;BME280;11603;44.910;8.630;2023-03-14T13:31:55;99178.94;;;16.61;100.00
22872;BME280;11603;44.910;8.630;2023-03-14T13:34:26;99186.72;;;16.64;100.00
22872;BME280;11603;44.910;8.630;2023-03-14T13:36:52;99174.16;;;16.46;100.00
22872;BME280;11603;44.910;8.630;2023-03-14T13:39:20;99170.13;;;16.50;100.00
22872;BME280;11603;44.910;8.630;2023-03-14T13:41:57;99172.88;;;16.59;100.00
22872;BME280;11603;44.910;8.630;2023-03-14T13:44:32;99164.41;;;16.62;100.00
22872;BME280;11603;44.910;8.630;2023-03-14T13:47:00;99176.53;;;16.58;100.00
22872;BME280;11603;44.910;8.630;2023-03-14T13:49:30;99173.50;;;16.52;100.00
22872;BME280;11603;44.910;8.630;2023-03-14T13:51:57;99177.19;;;16.43;100.00
22872;BME280;11603;44.910;8.630;2023-03-14T13:54:26;99182.59;;;16.27;100.00
22872;BME280;11603;44.910;8.630;2023-03-14T13:57:02;99193.19;;;16.21;100.00
22872;BME280;11603;44.910;8.630;2023-03-14T13:59:30;99192.50;;;16.19;100.00
22872;BME280;11603;44.910;8.630;2023-03-14T14:01:59;99189.59;;;16.12;100.00
22872;BME280;11603;44.910;8.630;2023-03-14T14:04:28;99193.00;;;16.14;100.00
22872;BME280;11603;44.910;8.630;2023-03-14T14:06:59;99195.69;;;16.14;100.00
22872;BME280;11603;44.910;8.630;2023-03-14T14:09:27;99191.34;;;16.21;100.00